Terminal Aerodrome Forecast
Issued by NWS Jackson, KY

Home | Current Version | Previous Version | Text Only | Print | Product List | Glossary On
Versions: 1 2 3 4 5 6 7 8 9 10 11 12 13 14 15 16
000
FTUS43 KJKL 201000 AAA
TAFLOZ
TAF AMD
KLOZ 201004Z 2010/2106 00000KT P6SM SCT250
      TEMPO 2010/2012 00000KT 5SM BR BKN250
     FM201200 24005KT P6SM FEW035 SCT080 BKN250
     FM210000 23003KT P6SM SCT040 BKN070=

USA.gov is the U.S. government's official web portal to all federal, state and local government web resources and services.